Clifton, Texas
Current Conditions -  °F | °C
As of 8:51 PM on Monday 22 Dec 2014 (Local Time) from KACT Reporting Station
Clear Clear  
Wind Chill: 56°   Ceiling: Unl
Heat Index: 56°   Visibility: 10mi
Dew Point: 43°   Wind: 9mph
Humidity: 62%   Direction: 320°NW
Pressure: 29.7"   Gusts: NA
Location:  31.78°N, 97.58°W
Report Text: KACT 230251Z 32008KT 10SM CLR 13/06 A2970 RMK AO2 SLP054 T01330061 51017
Loading
Personal Weather Stations






























Interactive Weather Map New forecast layout! Learn more

10-Day Weather Forecast

Advertisements
Track Severe Weather on mobile